createdAt,value
2023-07-24T00:00:08.120Z,21.10
2023-07-24T00:02:36.642Z,21.10
2023-07-24T00:05:07.808Z,21.10
2023-07-24T00:07:36.080Z,21.10
2023-07-24T00:10:04.928Z,21.10
2023-07-24T00:12:33.572Z,21.10
2023-07-24T00:15:02.097Z,21.00
2023-07-24T00:17:30.453Z,21.00
2023-07-24T00:19:59.265Z,21.00
2023-07-24T00:22:29.254Z,21.00
2023-07-24T00:24:57.412Z,21.00
2023-07-24T00:27:25.748Z,21.00
2023-07-24T00:29:54.104Z,21.00
2023-07-24T00:32:23.031Z,21.00
2023-07-24T00:34:51.497Z,21.00
2023-07-24T00:37:20.048Z,21.00
2023-07-24T00:39:50.282Z,21.10
2023-07-24T00:42:19.812Z,21.10
2023-07-24T00:44:50.306Z,21.10
2023-07-24T00:47:19.680Z,21.10
2023-07-24T00:49:49.418Z,21.10
2023-07-24T00:52:18.082Z,21.10
2023-07-24T00:54:49.824Z,21.20
2023-07-24T00:57:18.836Z,21.20
2023-07-24T00:59:47.759Z,21.20
2023-07-24T01:02:15.890Z,21.20
2023-07-24T01:04:44.673Z,21.10
2023-07-24T01:07:13.351Z,21.10
2023-07-24T01:09:41.980Z,21.00
2023-07-24T01:12:20.793Z,20.90
2023-07-24T01:14:53.627Z,21.00
2023-07-24T01:17:27.885Z,20.90
2023-07-24T01:19:58.088Z,20.80
2023-07-24T01:22:40.464Z,20.80
2023-07-24T01:25:16.711Z,20.80
2023-07-24T01:27:47.533Z,20.80
2023-07-24T01:30:21.382Z,20.80
2023-07-24T01:32:50.378Z,20.80
2023-07-24T01:35:19.506Z,20.70
2023-07-24T01:37:49.534Z,20.70
2023-07-24T01:40:18.160Z,20.70
2023-07-24T01:42:48.271Z,20.70
2023-07-24T01:45:16.713Z,20.60
2023-07-24T01:47:46.793Z,20.60
2023-07-24T01:50:15.204Z,20.60
2023-07-24T01:52:45.682Z,20.50
2023-07-24T01:55:14.002Z,20.50
2023-07-24T01:57:42.236Z,20.50
2023-07-24T02:00:13.323Z,20.50
2023-07-24T02:02:41.817Z,20.50
2023-07-24T02:05:11.110Z,20.50
2023-07-24T02:07:39.690Z,20.50
2023-07-24T02:10:09.148Z,20.50
2023-07-24T02:12:37.484Z,20.50
2023-07-24T02:15:06.351Z,20.50
2023-07-24T02:17:36.884Z,20.50
2023-07-24T02:20:06.115Z,20.50
2023-07-24T02:22:34.413Z,20.60
2023-07-24T02:25:03.749Z,20.60
2023-07-24T02:27:35.566Z,20.60
2023-07-24T02:30:04.847Z,20.50
2023-07-24T02:32:33.581Z,20.40
2023-07-24T02:35:03.322Z,20.20
2023-07-24T02:37:31.835Z,20.10
2023-07-24T02:40:00.334Z,20.00
2023-07-24T02:42:30.014Z,19.90
2023-07-24T02:44:58.220Z,19.80
2023-07-24T02:47:26.604Z,19.70
2023-07-24T02:49:54.824Z,19.60
2023-07-24T02:52:25.166Z,19.50
2023-07-24T02:54:53.620Z,19.50
2023-07-24T02:57:21.868Z,19.50
2023-07-24T02:59:50.126Z,19.50
2023-07-24T03:02:19.146Z,19.40
2023-07-24T03:04:48.013Z,19.30
2023-07-24T03:07:16.795Z,19.30
2023-07-24T03:09:46.670Z,19.30
2023-07-24T03:12:14.818Z,19.20
2023-07-24T03:14:43.561Z,19.20
2023-07-24T03:17:12.491Z,19.20
2023-07-24T03:19:41.042Z,19.30
2023-07-24T03:22:09.618Z,19.30
2023-07-24T03:24:38.010Z,19.20
2023-07-24T03:27:08.634Z,19.20
2023-07-24T03:29:38.602Z,19.10
2023-07-24T03:32:07.414Z,19.00
2023-07-24T03:34:35.712Z,18.90
2023-07-24T03:37:04.454Z,18.80
2023-07-24T03:39:33.345Z,18.70
2023-07-24T03:42:00.563Z,18.70
2023-07-24T03:44:30.412Z,18.70
2023-07-24T03:46:59.488Z,18.70
2023-07-24T03:49:28.360Z,18.80
2023-07-24T03:51:56.985Z,19.00
2023-07-24T03:54:25.457Z,19.00
2023-07-24T03:56:53.776Z,19.10
2023-07-24T03:59:24.842Z,19.10
2023-07-24T04:01:55.502Z,19.10
2023-07-24T04:04:24.053Z,19.00
2023-07-24T04:06:53.144Z,19.00
2023-07-24T04:09:21.880Z,19.00
2023-07-24T04:11:50.407Z,19.00
2023-07-24T04:14:18.950Z,19.00
2023-07-24T04:16:47.834Z,19.00
2023-07-24T04:19:17.730Z,19.00
2023-07-24T04:21:46.049Z,19.10
2023-07-24T04:24:14.571Z,19.20
2023-07-24T04:26:43.593Z,19.40
2023-07-24T04:29:12.457Z,19.50
2023-07-24T04:31:40.815Z,19.70
2023-07-24T04:34:09.065Z,19.80
2023-07-24T04:36:38.816Z,20.00
2023-07-24T04:39:06.966Z,20.20
2023-07-24T04:41:35.391Z,20.40
2023-07-24T04:44:03.855Z,20.60
2023-07-24T04:46:33.073Z,20.80
2023-07-24T04:49:01.916Z,20.90
2023-07-24T04:51:30.287Z,20.90
2023-07-24T04:54:00.146Z,20.80
2023-07-24T04:56:28.905Z,20.90
2023-07-24T04:58:57.632Z,20.90
2023-07-24T05:01:26.299Z,20.90
2023-07-24T05:03:55.153Z,21.00
2023-07-24T05:06:24.645Z,21.10
2023-07-24T05:08:54.743Z,21.10
2023-07-24T05:11:24.842Z,21.20
2023-07-24T05:13:53.447Z,21.30
2023-07-24T05:16:22.037Z,21.40
2023-07-24T05:18:52.104Z,21.50
2023-07-24T05:21:20.889Z,21.70
2023-07-24T05:23:49.348Z,21.80
2023-07-24T05:26:17.498Z,21.90
2023-07-24T05:28:47.525Z,22.00
2023-07-24T05:31:16.028Z,22.20
2023-07-24T05:33:44.458Z,22.20
2023-07-24T05:36:12.581Z,22.20
2023-07-24T05:38:41.244Z,22.30
2023-07-24T05:41:09.683Z,22.40
2023-07-24T05:43:37.887Z,22.40
2023-07-24T05:46:07.573Z,22.50
2023-07-24T05:48:36.111Z,22.60
2023-07-24T05:51:04.510Z,22.60
2023-07-24T05:53:32.838Z,22.60
2023-07-24T05:56:02.314Z,22.50
2023-07-24T05:58:32.833Z,22.50
2023-07-24T06:01:01.582Z,22.60
2023-07-24T06:03:31.522Z,22.70
2023-07-24T06:05:59.819Z,22.70
2023-07-24T06:08:28.714Z,22.60
2023-07-24T06:10:56.792Z,22.70
2023-07-24T06:13:25.202Z,22.80
2023-07-24T06:15:56.551Z,22.80
2023-07-24T06:18:26.402Z,22.80
2023-07-24T06:20:57.005Z,22.90
2023-07-24T06:23:25.658Z,23.00
2023-07-24T06:25:54.878Z,23.20
2023-07-24T06:28:23.622Z,23.40
2023-07-24T06:30:55.714Z,23.50
2023-07-24T06:33:24.249Z,23.50
2023-07-24T06:35:53.150Z,23.60
2023-07-24T06:38:23.873Z,23.90
2023-07-24T06:40:52.540Z,24.10
2023-07-24T06:43:22.498Z,24.10
2023-07-24T06:45:51.136Z,24.20
2023-07-24T06:48:19.552Z,24.10
2023-07-24T06:50:47.912Z,24.10
2023-07-24T06:53:16.428Z,24.30
2023-07-24T06:55:46.199Z,24.40
2023-07-24T06:58:14.804Z,24.60
2023-07-24T07:00:42.903Z,25.30
2023-07-24T07:03:11.335Z,26.10
2023-07-24T07:05:41.076Z,27.10
2023-07-24T07:08:09.610Z,27.90
2023-07-24T07:10:37.682Z,28.40
2023-07-24T07:13:10.280Z,28.50
2023-07-24T07:15:39.055Z,28.20
2023-07-24T07:18:07.639Z,28.00
2023-07-24T07:20:37.607Z,27.70
2023-07-24T07:23:05.855Z,28.60
2023-07-24T07:25:34.347Z,29.70
2023-07-24T07:28:02.854Z,30.30
2023-07-24T07:30:32.327Z,29.90
2023-07-24T07:33:00.816Z,29.80
2023-07-24T07:35:29.158Z,30.00
2023-07-24T07:37:57.646Z,31.10
2023-07-24T07:40:28.275Z,31.90
2023-07-24T07:42:56.919Z,32.10
2023-07-24T07:45:25.957Z,31.70
2023-07-24T07:47:56.028Z,31.60
2023-07-24T07:50:24.726Z,31.70
2023-07-24T07:52:53.350Z,31.60
2023-07-24T07:55:22.598Z,31.50
2023-07-24T07:57:51.121Z,31.20
2023-07-24T08:00:20.145Z,31.20
2023-07-24T08:02:48.497Z,30.60
2023-07-24T08:05:21.198Z,30.10
2023-07-24T08:07:50.071Z,29.80
2023-07-24T08:10:18.552Z,29.80
2023-07-24T08:12:46.786Z,29.30
2023-07-24T08:15:15.071Z,29.00
2023-07-24T08:17:43.544Z,28.40
2023-07-24T08:20:12.819Z,27.90
2023-07-24T08:22:42.199Z,27.80
2023-07-24T08:25:10.973Z,27.90
2023-07-24T08:27:54.473Z,28.00
2023-07-24T08:30:27.976Z,27.90
2023-07-24T08:32:56.354Z,28.00
2023-07-24T08:35:24.813Z,28.20
2023-07-24T08:37:54.564Z,28.40
2023-07-24T08:40:23.318Z,28.70
2023-07-24T08:42:52.847Z,29.00
2023-07-24T08:45:22.994Z,29.00
2023-07-24T08:47:52.550Z,28.70
2023-07-24T08:50:23.150Z,28.40
2023-07-24T08:52:51.634Z,28.10
2023-07-24T08:55:23.912Z,28.00
2023-07-24T08:57:52.344Z,28.00
2023-07-24T09:00:21.537Z,27.70
2023-07-24T09:02:50.146Z,27.50
2023-07-24T09:05:18.755Z,27.30
2023-07-24T09:07:48.589Z,27.00
2023-07-24T09:10:17.180Z,27.20
2023-07-24T09:12:47.217Z,27.50
2023-07-24T09:15:15.910Z,27.20
2023-07-24T09:17:51.690Z,27.10
2023-07-24T09:20:32.137Z,26.80
2023-07-24T09:23:15.245Z,26.30
2023-07-24T09:25:46.346Z,26.00
2023-07-24T09:28:18.009Z,25.40
2023-07-24T09:30:55.013Z,25.10
2023-07-24T09:33:24.426Z,24.90
2023-07-24T09:36:00.872Z,24.70
2023-07-24T09:38:29.770Z,24.60
2023-07-24T09:40:59.249Z,24.60
2023-07-24T09:43:39.728Z,24.70
2023-07-24T09:46:11.341Z,25.00
2023-07-24T09:48:43.386Z,25.40
2023-07-24T09:51:32.855Z,26.00
2023-07-24T09:54:08.515Z,27.40
2023-07-24T09:56:48.918Z,28.40
2023-07-24T09:59:22.168Z,28.90
2023-07-24T10:01:53.009Z,29.00
2023-07-24T10:04:22.352Z,28.50
2023-07-24T10:06:51.941Z,28.20
2023-07-24T10:09:24.483Z,27.80
2023-07-24T10:11:54.195Z,27.00
2023-07-24T10:14:24.534Z,26.70
2023-07-24T10:16:56.946Z,26.60
2023-07-24T10:19:25.432Z,26.40
2023-07-24T10:21:54.340Z,26.50
2023-07-24T10:24:40.142Z,26.50
2023-07-24T10:27:10.298Z,26.50
2023-07-24T10:29:40.091Z,26.20
2023-07-24T10:32:19.936Z,26.10
2023-07-24T10:34:57.829Z,26.30
2023-07-24T10:37:35.497Z,26.50
2023-07-24T10:40:04.845Z,26.60
2023-07-24T10:42:35.032Z,26.90
2023-07-24T10:45:09.830Z,27.30
2023-07-24T10:47:38.121Z,27.70
2023-07-24T10:50:07.909Z,28.60
2023-07-24T10:52:36.445Z,29.20
2023-07-24T10:55:06.468Z,29.00
2023-07-24T10:57:34.875Z,29.10
2023-07-24T11:00:04.804Z,29.40
2023-07-24T11:02:34.944Z,29.60
2023-07-24T11:05:03.572Z,29.80
2023-07-24T11:07:35.296Z,29.50
2023-07-24T11:10:04.215Z,29.80
2023-07-24T11:12:33.343Z,29.70
2023-07-24T11:15:01.615Z,30.10
2023-07-24T11:17:39.723Z,30.10
2023-07-24T11:20:10.498Z,29.80
2023-07-24T11:22:42.035Z,29.60
2023-07-24T11:25:12.975Z,29.40
2023-07-24T11:27:43.032Z,29.40
2023-07-24T11:30:12.370Z,29.30
2023-07-24T11:32:42.993Z,29.40
2023-07-24T11:35:12.219Z,29.30
2023-07-24T11:37:40.743Z,29.40
2023-07-24T11:40:12.080Z,29.70
2023-07-24T11:42:41.868Z,29.90
2023-07-24T11:45:12.380Z,29.90
2023-07-24T11:47:49.575Z,29.70
2023-07-24T11:50:19.398Z,29.90
2023-07-24T11:52:49.431Z,30.40
2023-07-24T11:55:19.486Z,30.60
2023-07-24T11:57:58.338Z,30.50
2023-07-24T12:00:27.508Z,30.00
2023-07-24T12:03:02.085Z,30.10
2023-07-24T12:05:30.605Z,30.10
2023-07-24T12:10:32.662Z,30.60
2023-07-24T12:13:02.117Z,30.60
2023-07-24T12:15:30.505Z,30.70
2023-07-24T12:18:01.054Z,30.80
2023-07-24T12:20:30.641Z,31.10
2023-07-24T12:22:59.348Z,31.00
2023-07-24T12:25:27.733Z,31.70
2023-07-24T12:27:56.587Z,31.80
2023-07-24T12:30:26.733Z,31.50
2023-07-24T12:32:55.811Z,31.10
2023-07-24T12:35:26.510Z,30.10
2023-07-24T12:37:54.985Z,30.30
2023-07-24T12:40:23.658Z,30.80
2023-07-24T12:42:52.026Z,31.10
2023-07-24T12:45:20.632Z,31.20
2023-07-24T12:47:49.164Z,31.00
2023-07-24T12:50:17.315Z,30.80
2023-07-24T12:52:48.155Z,30.60
2023-07-24T12:55:17.259Z,30.50
2023-07-24T12:57:45.904Z,29.80
2023-07-24T13:00:15.238Z,29.10
2023-07-24T13:02:44.377Z,28.40
2023-07-24T13:05:13.785Z,28.40
2023-07-24T13:07:42.352Z,29.00
2023-07-24T13:10:13.079Z,29.30
2023-07-24T13:12:42.098Z,29.30
2023-07-24T13:15:10.868Z,29.10
2023-07-24T13:17:40.313Z,29.00
2023-07-24T13:20:10.710Z,29.10
2023-07-24T13:22:39.019Z,28.90
2023-07-24T13:25:07.902Z,28.20
2023-07-24T13:27:38.021Z,27.70
2023-07-24T13:30:07.425Z,27.50
2023-07-24T13:32:36.250Z,27.30
2023-07-24T13:35:05.304Z,26.90
2023-07-24T13:37:34.412Z,26.50
2023-07-24T13:40:02.982Z,26.30
2023-07-24T13:42:31.875Z,25.80
2023-07-24T13:45:02.056Z,24.70
2023-07-24T13:47:30.464Z,23.90
2023-07-24T13:50:01.321Z,23.40
2023-07-24T13:52:29.451Z,23.20
2023-07-24T13:54:58.996Z,23.10
2023-07-24T13:57:27.625Z,23.00
2023-07-24T13:59:56.753Z,22.90
2023-07-24T14:02:27.091Z,22.70
2023-07-24T14:04:57.334Z,22.00
2023-07-24T14:07:25.738Z,21.50
2023-07-24T14:09:54.368Z,21.50
2023-07-24T14:12:22.781Z,21.50
2023-07-24T14:14:52.656Z,21.70
2023-07-24T14:17:21.570Z,22.00
2023-07-24T14:19:52.602Z,22.20
2023-07-24T14:22:20.787Z,22.30
2023-07-24T14:24:49.433Z,22.90
2023-07-24T14:27:17.641Z,23.50
2023-07-24T14:29:46.025Z,23.90
2023-07-24T14:32:14.418Z,24.80
2023-07-24T14:34:44.047Z,25.90
2023-07-24T14:37:15.110Z,26.60
2023-07-24T14:39:45.317Z,27.00
2023-07-24T14:42:14.473Z,27.40
2023-07-24T14:44:43.403Z,27.60
2023-07-24T14:47:11.845Z,28.10
2023-07-24T14:49:40.157Z,28.40
2023-07-24T14:52:09.152Z,28.60
2023-07-24T14:54:40.077Z,28.50
2023-07-24T14:57:23.451Z,28.30
2023-07-24T14:59:53.147Z,28.10
2023-07-24T15:02:22.042Z,27.70
2023-07-24T15:04:50.593Z,27.70
2023-07-24T15:07:18.921Z,27.60
2023-07-24T15:09:48.922Z,27.50
2023-07-24T15:12:17.208Z,27.90
2023-07-24T15:14:45.590Z,28.30
2023-07-24T15:17:15.944Z,28.50
2023-07-24T15:19:44.492Z,28.40
2023-07-24T15:22:12.981Z,28.50
2023-07-24T15:24:42.554Z,28.30
2023-07-24T15:27:12.276Z,27.80
2023-07-24T15:29:40.691Z,27.40
2023-07-24T15:32:10.781Z,28.00
2023-07-24T15:34:40.000Z,28.20
2023-07-24T15:37:08.535Z,27.50
2023-07-24T15:39:36.606Z,26.70
2023-07-24T15:42:05.484Z,26.10
2023-07-24T15:44:35.290Z,25.80
2023-07-24T15:47:03.699Z,25.50
2023-07-24T15:49:32.247Z,25.40
2023-07-24T15:52:00.757Z,25.30
2023-07-24T15:54:29.265Z,25.10
2023-07-24T15:56:57.887Z,24.90
2023-07-24T15:59:26.963Z,25.10
2023-07-24T16:01:57.350Z,25.50
2023-07-24T16:04:26.694Z,25.80
2023-07-24T16:06:55.283Z,25.90
2023-07-24T16:09:23.982Z,25.80
2023-07-24T16:11:52.550Z,25.70
2023-07-24T16:14:21.012Z,25.80
2023-07-24T16:16:49.165Z,26.30
2023-07-24T16:19:20.934Z,26.90
2023-07-24T16:21:50.565Z,27.30
2023-07-24T16:24:21.374Z,27.80
2023-07-24T16:26:50.172Z,28.10
2023-07-24T16:29:18.905Z,28.80
2023-07-24T16:31:47.648Z,29.20
2023-07-24T16:34:16.834Z,28.80
2023-07-24T16:36:47.089Z,28.50
2023-07-24T16:39:15.505Z,28.20
2023-07-24T16:41:44.081Z,28.10
2023-07-24T16:44:15.364Z,27.80
2023-07-24T16:46:44.825Z,27.90
2023-07-24T16:49:13.644Z,28.00
2023-07-24T16:51:42.166Z,28.10
2023-07-24T16:54:12.941Z,28.00
2023-07-24T16:56:42.065Z,27.80
2023-07-24T16:59:10.509Z,27.70
2023-07-24T17:01:39.303Z,27.20
2023-07-24T17:04:07.565Z,26.50
2023-07-24T17:06:36.461Z,26.00
2023-07-24T17:09:05.215Z,25.60
2023-07-24T17:11:35.389Z,25.40
2023-07-24T17:14:03.968Z,25.40
2023-07-24T17:16:32.568Z,25.50
2023-07-24T17:19:03.410Z,25.40
2023-07-24T17:21:32.800Z,25.40
2023-07-24T17:24:01.597Z,25.40
2023-07-24T17:26:35.400Z,25.50
2023-07-24T17:29:05.165Z,25.40
2023-07-24T17:31:35.091Z,25.20
2023-07-24T17:34:04.487Z,25.20
2023-07-24T17:36:32.861Z,25.10
2023-07-24T17:39:02.051Z,25.10
2023-07-24T17:41:30.673Z,25.00
2023-07-24T17:43:59.518Z,24.90
2023-07-24T17:46:29.359Z,24.90
2023-07-24T17:48:57.976Z,24.80
2023-07-24T17:51:28.165Z,24.60
2023-07-24T17:53:58.189Z,24.40
2023-07-24T17:56:26.993Z,24.20
2023-07-24T17:58:55.394Z,24.00
2023-07-24T18:01:25.288Z,23.90
2023-07-24T18:03:55.135Z,23.80
2023-07-24T18:06:24.411Z,23.60
2023-07-24T18:08:52.909Z,23.50
2023-07-24T18:11:21.702Z,23.40
2023-07-24T18:13:50.179Z,23.30
2023-07-24T18:16:18.482Z,23.20
2023-07-24T18:18:46.945Z,23.10
2023-07-24T18:21:16.795Z,23.00
2023-07-24T18:23:46.341Z,22.80
2023-07-24T18:26:15.203Z,22.70
2023-07-24T18:28:44.685Z,22.60
2023-07-24T18:31:13.508Z,22.50
2023-07-24T18:33:41.632Z,22.30
2023-07-24T18:36:09.884Z,22.20
2023-07-24T18:38:39.411Z,22.10
2023-07-24T18:41:07.719Z,22.00
2023-07-24T18:43:35.981Z,21.90
2023-07-24T18:46:04.374Z,21.80
2023-07-24T18:48:33.199Z,21.70
2023-07-24T18:51:01.534Z,21.60
2023-07-24T18:53:31.811Z,21.60
2023-07-24T18:56:02.375Z,21.50
2023-07-24T18:58:30.536Z,21.40
2023-07-24T19:01:02.653Z,21.40
2023-07-24T19:03:32.332Z,21.40
2023-07-24T19:06:01.653Z,21.30
2023-07-24T19:08:29.925Z,21.30
2023-07-24T19:10:58.276Z,21.30
2023-07-24T19:13:32.709Z,21.20
2023-07-24T19:16:02.618Z,21.20
2023-07-24T19:18:31.196Z,21.10
2023-07-24T19:21:02.055Z,21.10
2023-07-24T19:23:30.968Z,21.00
2023-07-24T19:25:59.466Z,21.00
2023-07-24T19:28:30.627Z,20.90
2023-07-24T19:30:58.853Z,20.80
2023-07-24T19:33:27.986Z,20.70
2023-07-24T19:36:01.294Z,20.60
2023-07-24T19:38:30.703Z,20.50
2023-07-24T19:41:00.305Z,20.50
2023-07-24T19:43:30.757Z,20.40
2023-07-24T19:45:59.037Z,20.30
2023-07-24T19:48:27.720Z,20.20
2023-07-24T19:50:57.381Z,20.20
2023-07-24T19:53:26.787Z,20.10
2023-07-24T19:55:56.164Z,20.10
2023-07-24T19:58:33.665Z,20.10
2023-07-24T20:01:05.234Z,20.10
2023-07-24T20:03:33.778Z,20.10
2023-07-24T20:06:06.954Z,20.00
2023-07-24T20:08:38.266Z,20.00
2023-07-24T20:11:07.902Z,19.90
2023-07-24T20:13:39.428Z,19.90
2023-07-24T20:16:10.680Z,19.90
2023-07-24T20:18:38.893Z,19.80
2023-07-24T20:21:07.742Z,19.80
2023-07-24T20:23:36.975Z,19.70
2023-07-24T20:26:06.080Z,19.70
2023-07-24T20:28:35.608Z,19.60
2023-07-24T20:31:05.250Z,19.60
2023-07-24T20:33:35.498Z,19.60
2023-07-24T20:36:08.070Z,19.50
2023-07-24T20:38:39.533Z,19.40
2023-07-24T20:41:08.782Z,19.40
2023-07-24T20:43:37.643Z,19.40
2023-07-24T20:46:12.960Z,19.30
2023-07-24T20:48:43.453Z,19.30
2023-07-24T20:51:19.973Z,19.30
2023-07-24T20:53:48.911Z,19.30
2023-07-24T20:56:22.127Z,19.30
2023-07-24T20:58:50.253Z,19.30
2023-07-24T21:01:24.067Z,19.30
2023-07-24T21:03:55.804Z,19.20
2023-07-24T21:06:24.115Z,19.20
2023-07-24T21:08:52.660Z,19.10
2023-07-24T21:11:21.114Z,19.10
2023-07-24T21:13:49.863Z,19.00
2023-07-24T21:16:18.352Z,19.00
2023-07-24T21:18:46.521Z,18.90
2023-07-24T21:21:16.876Z,18.90
2023-07-24T21:23:45.234Z,18.80
2023-07-24T21:26:13.672Z,18.80
2023-07-24T21:28:42.179Z,18.80
2023-07-24T21:31:11.048Z,18.80
2023-07-24T21:33:39.753Z,18.70
2023-07-24T21:36:08.875Z,18.70
2023-07-24T21:38:40.750Z,18.60
2023-07-24T21:41:12.418Z,18.70
2023-07-24T21:43:40.717Z,18.70
2023-07-24T21:46:09.201Z,18.60
2023-07-24T21:48:37.944Z,18.70
2023-07-24T21:51:06.664Z,18.70
2023-07-24T21:53:34.958Z,18.70
2023-07-24T21:56:05.285Z,18.70
2023-07-24T21:58:33.642Z,18.70
2023-07-24T22:01:01.995Z,18.70
2023-07-24T22:03:30.220Z,18.70
2023-07-24T22:05:58.779Z,18.60
2023-07-24T22:08:27.561Z,18.60
2023-07-24T22:10:57.387Z,18.50
2023-07-24T22:13:27.021Z,18.50
2023-07-24T22:15:55.402Z,18.40
2023-07-24T22:18:23.802Z,18.40
2023-07-24T22:20:51.968Z,18.40
2023-07-24T22:23:20.479Z,18.40
2023-07-24T22:25:49.071Z,18.50
2023-07-24T22:28:17.218Z,18.60
2023-07-24T22:30:48.097Z,18.60
2023-07-24T22:33:16.612Z,18.70
2023-07-24T22:35:44.668Z,18.80
2023-07-24T22:38:13.161Z,18.90
2023-07-24T22:40:41.297Z,19.00
2023-07-24T22:43:09.849Z,19.10
2023-07-24T22:45:38.277Z,19.20
2023-07-24T22:48:08.305Z,19.20
2023-07-24T22:50:36.597Z,19.20
2023-07-24T22:53:08.037Z,19.30
2023-07-24T22:55:38.038Z,19.20
2023-07-24T22:58:07.367Z,19.20
2023-07-24T23:00:35.942Z,19.20
2023-07-24T23:03:04.310Z,19.10
2023-07-24T23:05:34.100Z,18.90
2023-07-24T23:08:02.639Z,18.80
2023-07-24T23:10:30.875Z,18.80
2023-07-24T23:12:58.931Z,18.70
2023-07-24T23:15:27.285Z,18.70
2023-07-24T23:17:55.553Z,18.80
2023-07-24T23:20:24.010Z,18.90
2023-07-24T23:22:53.732Z,18.90
2023-07-24T23:25:22.467Z,18.90
2023-07-24T23:27:51.226Z,19.00
2023-07-24T23:30:19.697Z,19.00
2023-07-24T23:32:48.305Z,19.00
2023-07-24T23:35:16.842Z,19.10
2023-07-24T23:37:45.028Z,19.10
2023-07-24T23:40:15.316Z,19.10
2023-07-24T23:42:43.523Z,19.10
2023-07-24T23:45:12.835Z,19.10
2023-07-24T23:47:41.126Z,19.20
2023-07-24T23:50:10.303Z,19.10
2023-07-24T23:52:38.830Z,19.10
2023-07-24T23:55:08.092Z,19.00
2023-07-24T23:57:37.667Z,19.00
